METAR Data
IDs: Format: Raw Decoded Include TAF

Data at: 2151 UTC 22 Sep 2020

KY50 222056Z AUTO 24005KT 10SM CLR 26/16 A3007 RMK AO2 SLP177 T02610161 56016 $
KY50 221956Z AUTO 23004KT 10SM CLR 26/16 A3008 RMK AO2 SLP182 T02610161 $
KY50 221856Z AUTO 00000KT 10SM CLR 26/16 A3010 RMK AO2 SLP188 T02560156 $
KY50 221756Z AUTO 26005KT 10SM CLR 24/15 A3012 RMK AO2 SLP194 T02390150 10244 20106 58018 $
KY50 221656Z AUTO 00000KT 10SM CLR 23/15 A3014 RMK AO2 SLP203 T02280150 $
KY50 221556Z AUTO 26005KT 10SM CLR 21/14 A3015 RMK AO2 SLP209 T02110144 $
KY50 221456Z AUTO 22004KT 10SM CLR 18/13 A3017 RMK AO2 SLP213 T01830133 50001 $
KY50 221356Z AUTO VRB03KT 10SM CLR 15/12 A3017 RMK AO2 SLP216 T01500122 $
KY50 221256Z AUTO 00000KT 10SM CLR 12/11 A3018 RMK AO2 SLP218 T01170111 $
KY50 221156Z AUTO 00000KT 10SM CLR 11/10 A3017 RMK AO2 SLP213 60000 7//// T01060100 10122 20106 56004 $
KY50 221056Z AUTO 00000KT 10SM CLR 12/11 A3017 RMK AO2 SLP216 T01170111 $
KY50 220956Z AUTO 00000KT 10SM BKN110 12/11 A3017 RMK AO2 RAB28E40 SLP214 P0000 T01170111 $
KY50 220856Z AUTO 00000KT 9SM FEW120 12/11 A3018 RMK AO2 RAB02E16 SLP217 P0000 60000 T01170106 58007 $
KY50 220756Z AUTO 00000KT 10SM SCT110 12/11 A3019 RMK AO2 SLP220 T01170111 $
KY50 220656Z AUTO 00000KT 10SM FEW120 12/11 A3020 RMK AO2 SLP225 T01170106 $
KY50 220556Z AUTO 00000KT 10SM SCT120 12/11 A3020 RMK AO2 SLP225 60000 T01220111 10183 20111 402330039 58000 $
KY50 220456Z AUTO 00000KT 10SM CLR 12/11 A3021 RMK AO2 SLP229 T01170111 $
KY50 220356Z AUTO 00000KT 10SM BKN110 12/11 A3021 RMK AO2 RAB33E51 SLP229 P0000 T01220106 $
KY50 220256Z AUTO 00000KT 10SM CLR 12/10 A3020 RMK AO2 SLP225 T01170100 52004 $
KY50 220156Z AUTO 00000KT 10SM CLR 12/10 A3020 RMK AO2 SLP227 T01220100 $
KY50 220056Z AUTO 00000KT 10SM CLR 13/10 A3019 RMK AO2 SLP226 T01330100 $
KY50 212356Z AUTO 00000KT 10SM CLR 18/10 A3019 RMK AO2 SLP224 6//// T01830100 10233 20183 55009 $
KY50 212256Z AUTO 18005KT 10SM CLR 21/09 A3019 RMK AO2 SLP219 T02060094 $
KY50 212156Z AUTO 18006KT 10SM CLR 22/09 A3020 RMK AO2 SLP224 T02170094 $
KY50 212056Z AUTO 18009KT 10SM CLR 23/08 A3021 RMK AO2 SLP229 6//// T02280078 56024 $
KY50 211956Z AUTO 20012KT 10SM CLR 23/08 A3023 RMK AO2 SLP233 T02280078 $
KY50 211856Z AUTO 19009G16KT 10SM CLR 23/08 A3025 RMK AO2 SLP240 T02280078 $
KY50 211756Z AUTO 19008KT 10SM CLR 21/08 A3029 RMK AO2 SLP255 6//// T02110078 10211 20039 58016 $
KY50 211656Z AUTO 20007KT 10SM CLR 19/07 A3031 RMK AO2 SLP263 T01940072 $
KY50 211556Z AUTO 18009KT 10SM CLR 18/07 A3032 RMK AO2 SLP263 T01830067 $
KY50 211456Z AUTO 19007KT 10SM CLR 16/07 A3033 RMK AO2 SLP269 6//// T01560067 58002 $
KY50 211356Z AUTO VRB03KT 10SM CLR 12/07 A3034 RMK AO2 SLP273 T01220067 $
KY50 211256Z AUTO 00000KT 10SM CLR 07/06 A3034 RMK AO2 SLP276 T00670056 $
KY50 211156Z AUTO 00000KT 10SM CLR 04/03 A3034 RMK AO2 SLP277 7//// T00390033 10106 20039 $
KY50 211056Z AUTO 00000KT 10SM CLR 09/06 A3032 RMK AO2 SLP267 T00890061 $
KY50 210956Z AUTO 15004KT 10SM CLR 06/05 RMK AO2 SLPNO T00560050 $